createdAt,value
2018-08-06T00:00:28.555Z,86.00
2018-08-06T00:02:57.863Z,86.20
2018-08-06T00:05:27.085Z,85.90
2018-08-06T00:07:56.347Z,86.60
2018-08-06T00:10:26.710Z,87.30
2018-08-06T00:12:56.043Z,87.10
2018-08-06T00:15:25.316Z,87.30
2018-08-06T00:17:54.633Z,88.30
2018-08-06T00:20:24.043Z,88.10
2018-08-06T00:22:53.294Z,88.60
2018-08-06T00:25:22.527Z,88.60
2018-08-06T00:27:51.777Z,89.20
2018-08-06T00:30:21.750Z,88.40
2018-08-06T00:32:51.346Z,88.50
2018-08-06T00:35:20.619Z,87.00
2018-08-06T00:37:49.931Z,88.10
2018-08-06T00:40:20.362Z,89.10
2018-08-06T00:42:49.848Z,89.40
2018-08-06T00:45:20.465Z,87.90
2018-08-06T00:47:51.290Z,89.30
2018-08-06T00:50:20.502Z,89.30
2018-08-06T00:52:50.613Z,89.10
2018-08-06T00:55:20.688Z,90.80
2018-08-06T00:57:50.555Z,90.50
2018-08-06T01:00:20.888Z,90.60
2018-08-06T01:02:50.107Z,90.80
2018-08-06T01:05:19.315Z,90.80
2018-08-06T01:07:48.544Z,91.20
2018-08-06T01:10:18.907Z,91.20
2018-08-06T01:12:48.812Z,91.00
2018-08-06T01:15:19.114Z,90.40
2018-08-06T01:17:48.382Z,91.00
2018-08-06T01:20:18.314Z,91.40
2018-08-06T01:22:47.543Z,91.70
2018-08-06T01:25:17.431Z,92.00
2018-08-06T01:27:46.611Z,92.00
2018-08-06T01:30:16.161Z,92.10
2018-08-06T01:32:45.462Z,92.30
2018-08-06T01:35:14.686Z,92.30
2018-08-06T01:37:44.007Z,92.30
2018-08-06T01:40:15.176Z,92.50
2018-08-06T01:42:44.363Z,92.80
2018-08-06T01:45:15.026Z,93.30
2018-08-06T01:47:44.531Z,93.00
2018-08-06T01:50:14.823Z,92.10
2018-08-06T01:52:44.122Z,92.30
2018-08-06T01:55:13.374Z,92.30
2018-08-06T01:57:42.757Z,92.50
2018-08-06T02:00:14.849Z,92.90
2018-08-06T02:02:44.116Z,93.10
2018-08-06T02:05:13.355Z,92.90
2018-08-06T02:07:42.622Z,93.10
2018-08-06T02:10:14.045Z,93.60
2018-08-06T02:12:43.723Z,93.00
2018-08-06T02:15:13.530Z,92.70
2018-08-06T02:17:42.811Z,92.60
2018-08-06T02:20:13.812Z,93.10
2018-08-06T02:22:43.493Z,93.50
2018-08-06T02:25:12.759Z,93.50
2018-08-06T02:27:42.409Z,93.80
2018-08-06T02:30:14.073Z,93.90
2018-08-06T02:32:43.380Z,93.90
2018-08-06T02:35:14.126Z,93.90
2018-08-06T02:37:43.746Z,94.20
2018-08-06T02:40:15.596Z,94.20
2018-08-06T02:42:45.111Z,94.20
2018-08-06T02:45:16.458Z,94.30
2018-08-06T02:47:45.935Z,94.50
2018-08-06T02:50:15.176Z,94.70
2018-08-06T02:52:44.999Z,94.10
2018-08-06T02:55:15.419Z,94.70
2018-08-06T02:57:44.698Z,94.50
2018-08-06T03:00:16.243Z,94.90
2018-08-06T03:02:46.509Z,95.10
2018-08-06T03:05:16.893Z,95.00
2018-08-06T03:07:46.601Z,95.20
2018-08-06T03:10:16.299Z,94.80
2018-08-06T03:12:46.447Z,95.00
2018-08-06T03:15:15.795Z,95.10
2018-08-06T03:17:45.036Z,95.10
2018-08-06T03:20:14.603Z,95.00
2018-08-06T03:22:43.890Z,94.90
2018-08-06T03:25:15.004Z,95.40
2018-08-06T03:27:45.009Z,95.20
2018-08-06T03:30:15.869Z,95.40
2018-08-06T03:32:46.359Z,95.70
2018-08-06T03:35:15.681Z,95.80
2018-08-06T03:37:44.934Z,95.80
2018-08-06T03:40:14.230Z,95.60
2018-08-06T03:42:43.831Z,95.70
2018-08-06T03:45:13.255Z,94.90
2018-08-06T03:47:43.222Z,95.00
2018-08-06T03:50:13.511Z,95.50
2018-08-06T03:52:42.971Z,95.20
2018-08-06T03:55:12.528Z,96.00
2018-08-06T03:57:42.016Z,95.80
2018-08-06T04:00:14.299Z,96.50
2018-08-06T04:02:44.209Z,96.40
2018-08-06T04:05:14.695Z,96.30
2018-08-06T04:07:44.574Z,96.40
2018-08-06T04:10:16.249Z,96.80
2018-08-06T04:12:45.725Z,97.40
2018-08-06T04:15:15.016Z,96.60
2018-08-06T04:17:44.344Z,96.60
2018-08-06T04:20:14.390Z,96.60
2018-08-06T04:22:44.267Z,96.70
2018-08-06T04:25:13.531Z,96.70
2018-08-06T04:27:43.040Z,96.60
2018-08-06T04:30:13.872Z,96.90
2018-08-06T04:32:44.185Z,97.00
2018-08-06T04:35:14.033Z,96.40
2018-08-06T04:37:44.127Z,96.10
2018-08-06T04:40:14.044Z,95.70
2018-08-06T04:42:43.685Z,96.20
2018-08-06T04:45:13.395Z,96.40
2018-08-06T04:47:42.806Z,96.30
2018-08-06T04:50:13.736Z,95.70
2018-08-06T04:52:43.662Z,95.10
2018-08-06T04:55:14.091Z,94.80
2018-08-06T04:57:43.875Z,94.70
2018-08-06T05:00:14.530Z,95.40
2018-08-06T05:02:44.243Z,95.70
2018-08-06T05:05:13.508Z,95.50
2018-08-06T05:07:43.004Z,95.10
2018-08-06T05:10:12.231Z,95.20
2018-08-06T05:12:42.367Z,95.40
2018-08-06T05:15:11.635Z,94.90
2018-08-06T05:17:40.938Z,94.70
2018-08-06T05:20:10.925Z,95.60
2018-08-06T05:22:40.201Z,95.60
2018-08-06T05:25:09.437Z,95.70
2018-08-06T05:27:38.673Z,95.40
2018-08-06T05:30:11.302Z,95.20
2018-08-06T05:32:40.517Z,95.20
2018-08-06T05:35:09.927Z,95.40
2018-08-06T05:37:39.147Z,95.00
2018-08-06T05:40:09.107Z,94.80
2018-08-06T05:42:39.161Z,94.50
2018-08-06T05:45:09.844Z,94.50
2018-08-06T05:47:39.690Z,94.70
2018-08-06T05:50:11.272Z,94.30
2018-08-06T05:52:40.544Z,93.90
2018-08-06T05:55:10.575Z,93.60
2018-08-06T05:57:40.818Z,93.20
2018-08-06T06:02:40.277Z,92.80
2018-08-06T06:05:09.986Z,92.70
2018-08-06T06:07:39.327Z,92.10
2018-08-06T06:10:09.840Z,91.80
2018-08-06T06:12:39.072Z,91.80
2018-08-06T06:15:15.546Z,90.80
2018-08-06T06:17:45.815Z,89.70
2018-08-06T06:20:15.394Z,89.30
2018-08-06T06:22:45.755Z,88.50
2018-08-06T06:25:15.924Z,87.20
2018-08-06T06:27:45.390Z,86.40
2018-08-06T06:30:16.626Z,84.10
2018-08-06T06:32:46.009Z,83.00
2018-08-06T06:35:15.370Z,82.90
2018-08-06T06:37:44.784Z,81.00
2018-08-06T06:40:14.600Z,79.80
2018-08-06T06:42:43.947Z,78.10
2018-08-06T06:45:14.127Z,78.40
2018-08-06T06:47:43.523Z,78.70
2018-08-06T06:50:12.791Z,78.30
2018-08-06T06:52:42.030Z,76.30
2018-08-06T06:55:13.147Z,74.30
2018-08-06T06:57:42.983Z,74.90
2018-08-06T07:00:12.443Z,73.70
2018-08-06T07:02:42.443Z,74.20
2018-08-06T07:05:11.958Z,73.00
2018-08-06T07:07:41.198Z,71.50
2018-08-06T07:10:11.986Z,71.70
2018-08-06T07:12:41.517Z,70.00
2018-08-06T07:15:14.156Z,69.80
2018-08-06T07:17:45.313Z,68.80
2018-08-06T07:20:15.425Z,68.80
2018-08-06T07:22:44.639Z,67.20
2018-08-06T07:25:13.978Z,66.80
2018-08-06T07:27:43.825Z,64.90
2018-08-06T07:30:14.738Z,65.20
2018-08-06T07:32:44.719Z,63.80
2018-08-06T07:35:14.530Z,63.80
2018-08-06T07:37:44.168Z,62.00
2018-08-06T07:40:14.311Z,61.40
2018-08-06T07:42:43.514Z,61.60
2018-08-06T07:45:15.276Z,60.60
2018-08-06T07:47:45.038Z,59.30
2018-08-06T07:50:16.598Z,58.60
2018-08-06T07:52:45.986Z,58.60
2018-08-06T07:57:45.407Z,57.30
2018-08-06T08:00:17.750Z,55.90
2018-08-06T08:02:47.164Z,56.00
2018-08-06T08:05:18.122Z,55.40
2018-08-06T08:07:48.150Z,56.00
2018-08-06T08:10:20.278Z,54.40
2018-08-06T08:12:49.528Z,53.90
2018-08-06T08:15:27.243Z,53.70
2018-08-06T08:17:57.839Z,52.50
2018-08-06T08:20:27.175Z,51.90
2018-08-06T08:22:56.837Z,52.30
2018-08-06T08:25:26.094Z,51.10
2018-08-06T08:27:55.967Z,51.50
2018-08-06T08:30:25.276Z,51.40
2018-08-06T08:32:54.547Z,49.80
2018-08-06T08:35:29.659Z,48.60
2018-08-06T08:37:59.872Z,49.10
2018-08-06T08:40:29.278Z,48.90
2018-08-06T08:42:59.947Z,48.80
2018-08-06T08:45:29.394Z,47.60
2018-08-06T08:47:58.814Z,47.50
2018-08-06T08:50:28.115Z,47.70
2018-08-06T08:52:57.498Z,46.10
2018-08-06T08:55:27.395Z,44.60
2018-08-06T08:57:56.808Z,45.40
2018-08-06T09:00:26.504Z,44.40
2018-08-06T09:02:55.766Z,44.30
2018-08-06T09:05:25.095Z,45.10
2018-08-06T09:07:55.062Z,43.10
2018-08-06T09:10:24.415Z,43.80
2018-08-06T09:12:54.346Z,44.20
2018-08-06T09:15:26.314Z,43.60
2018-08-06T09:17:55.639Z,42.80
2018-08-06T09:20:26.463Z,42.20
2018-08-06T09:22:55.707Z,43.10
2018-08-06T09:25:25.030Z,42.20
2018-08-06T09:27:54.214Z,42.30
2018-08-06T09:30:24.768Z,42.50
2018-08-06T09:32:57.296Z,42.50
2018-08-06T09:35:26.591Z,40.20
2018-08-06T09:40:25.198Z,40.40
2018-08-06T09:42:54.423Z,40.10
2018-08-06T09:45:23.934Z,40.70
2018-08-06T09:47:54.496Z,40.00
2018-08-06T09:50:23.856Z,39.20
2018-08-06T09:52:53.798Z,38.40
2018-08-06T09:55:25.128Z,39.10
2018-08-06T09:57:54.752Z,39.00
2018-08-06T10:00:29.334Z,38.00
2018-08-06T10:03:01.637Z,37.00
2018-08-06T10:05:31.006Z,36.90
2018-08-06T10:10:29.568Z,38.20
2018-08-06T10:15:27.879Z,37.60
2018-08-06T10:17:57.140Z,36.30
2018-08-06T10:20:27.627Z,37.20
2018-08-06T10:22:56.854Z,36.80
2018-08-06T10:25:27.892Z,35.50
2018-08-06T10:27:58.055Z,35.60
2018-08-06T10:30:27.401Z,35.90
2018-08-06T10:32:56.643Z,36.20
2018-08-06T10:35:25.851Z,35.70
2018-08-06T10:37:55.050Z,34.80
2018-08-06T10:40:24.821Z,34.90
2018-08-06T10:42:54.508Z,34.90
2018-08-06T10:45:24.951Z,34.80
2018-08-06T10:47:54.663Z,34.00
2018-08-06T10:50:23.968Z,34.40
2018-08-06T10:52:53.577Z,35.10
2018-08-06T10:55:22.865Z,34.40
2018-08-06T11:00:23.038Z,33.90
2018-08-06T11:02:52.494Z,33.60
2018-08-06T11:05:21.818Z,33.00
2018-08-06T11:07:51.127Z,32.40
2018-08-06T11:10:24.501Z,31.80
2018-08-06T11:12:53.703Z,33.00
2018-08-06T11:17:55.753Z,33.30
2018-08-06T11:20:25.117Z,33.10
2018-08-06T11:22:55.471Z,32.70
2018-08-06T11:25:24.730Z,32.30
2018-08-06T11:27:54.816Z,33.10
2018-08-06T11:30:24.389Z,32.40
2018-08-06T11:32:54.248Z,32.00
2018-08-06T11:35:23.571Z,31.50
2018-08-06T11:37:53.040Z,32.60
2018-08-06T11:40:22.291Z,31.70
2018-08-06T11:42:51.492Z,30.10
2018-08-06T11:45:21.880Z,30.10
2018-08-06T11:47:51.266Z,29.90
2018-08-06T11:50:20.559Z,30.70
2018-08-06T11:52:50.351Z,30.70
2018-08-06T11:55:19.578Z,31.50
2018-08-06T11:57:49.029Z,30.70
2018-08-06T12:00:20.227Z,31.00
2018-08-06T12:02:49.487Z,31.20
2018-08-06T12:05:18.863Z,30.90
2018-08-06T12:10:18.188Z,29.40
2018-08-06T12:12:48.235Z,30.00
2018-08-06T12:15:18.426Z,30.30
2018-08-06T12:17:47.636Z,31.10
2018-08-06T12:20:18.517Z,30.60
2018-08-06T12:22:48.912Z,30.40
2018-08-06T12:25:18.480Z,30.00
2018-08-06T12:27:48.477Z,30.30
2018-08-06T12:30:21.336Z,30.10
2018-08-06T12:32:51.783Z,30.80
2018-08-06T12:35:21.845Z,29.80
2018-08-06T12:37:52.901Z,30.00
2018-08-06T12:40:23.047Z,30.00
2018-08-06T12:42:52.316Z,29.90
2018-08-06T12:45:21.555Z,29.90
2018-08-06T12:47:50.806Z,28.70
2018-08-06T12:50:20.406Z,28.70
2018-08-06T12:52:49.643Z,28.20
2018-08-06T12:55:19.184Z,27.90
2018-08-06T12:57:48.436Z,28.20
2018-08-06T13:00:20.771Z,28.70
2018-08-06T13:02:50.790Z,29.10
2018-08-06T13:05:20.794Z,29.30
2018-08-06T13:07:50.344Z,29.20
2018-08-06T13:10:19.607Z,29.60
2018-08-06T13:12:48.908Z,30.40
2018-08-06T13:15:18.477Z,28.40
2018-08-06T13:17:48.455Z,28.30
2018-08-06T13:20:19.467Z,28.40
2018-08-06T13:22:49.567Z,28.00
2018-08-06T13:25:18.816Z,28.30
2018-08-06T13:27:48.372Z,28.30
2018-08-06T13:30:17.644Z,28.10
2018-08-06T13:32:46.879Z,28.00
2018-08-06T13:35:16.487Z,28.60
2018-08-06T13:37:45.840Z,29.40
2018-08-06T13:40:15.026Z,29.30
2018-08-06T13:42:44.537Z,29.40
2018-08-06T13:45:14.246Z,28.50
2018-08-06T13:47:43.567Z,27.60
2018-08-06T13:50:13.339Z,27.30
2018-08-06T13:52:42.583Z,27.50
2018-08-06T13:55:12.664Z,27.60
2018-08-06T13:57:42.225Z,27.50
2018-08-06T14:00:17.389Z,27.50
2018-08-06T14:02:47.711Z,27.50
2018-08-06T14:05:18.019Z,27.50
2018-08-06T14:07:49.209Z,27.20
2018-08-06T14:10:18.607Z,27.10
2018-08-06T14:12:48.722Z,27.40
2018-08-06T14:17:46.676Z,27.60
2018-08-06T14:20:17.379Z,27.30
2018-08-06T14:22:47.639Z,27.20
2018-08-06T14:25:16.898Z,27.50
2018-08-06T14:27:46.867Z,28.10
2018-08-06T14:30:17.063Z,28.50
2018-08-06T14:32:46.531Z,28.20
2018-08-06T14:35:17.187Z,27.30
2018-08-06T14:37:46.368Z,27.10
2018-08-06T14:40:18.055Z,27.30
2018-08-06T14:42:48.717Z,27.20
2018-08-06T14:45:17.993Z,27.20
2018-08-06T14:47:47.162Z,27.10
2018-08-06T14:50:16.379Z,27.30
2018-08-06T14:52:45.605Z,27.10
2018-08-06T14:55:15.109Z,27.50
2018-08-06T14:57:44.394Z,27.80
2018-08-06T15:00:16.991Z,27.80
2018-08-06T15:02:46.616Z,27.90
2018-08-06T15:05:15.863Z,28.20
2018-08-06T15:07:45.150Z,27.60
2018-08-06T15:10:14.929Z,27.50
2018-08-06T15:12:44.411Z,28.00
2018-08-06T15:15:14.843Z,28.90
2018-08-06T15:17:44.554Z,28.70
2018-08-06T15:20:16.327Z,28.10
2018-08-06T15:22:45.763Z,28.80
2018-08-06T15:25:19.411Z,29.40
2018-08-06T15:27:48.654Z,29.20
2018-08-06T15:30:17.947Z,28.80
2018-08-06T15:32:47.467Z,29.00
2018-08-06T15:37:45.783Z,29.60
2018-08-06T15:40:16.879Z,29.60
2018-08-06T15:42:46.690Z,29.60
2018-08-06T15:45:16.607Z,29.40
2018-08-06T15:47:46.347Z,29.80
2018-08-06T15:50:18.124Z,30.30
2018-08-06T15:52:47.734Z,30.00
2018-08-06T15:55:17.424Z,29.80
2018-08-06T15:57:47.478Z,30.20
2018-08-06T16:00:18.939Z,29.80
2018-08-06T16:02:48.507Z,30.10
2018-08-06T16:05:17.803Z,30.70
2018-08-06T16:07:47.178Z,30.90
2018-08-06T16:10:17.746Z,31.40
2018-08-06T16:12:47.011Z,32.20
2018-08-06T16:15:16.715Z,32.10
2018-08-06T16:17:46.103Z,32.40
2018-08-06T16:20:16.758Z,32.60
2018-08-06T16:22:47.150Z,32.10
2018-08-06T16:25:16.616Z,32.10
2018-08-06T16:27:45.871Z,31.60
2018-08-06T16:30:22.370Z,31.60
2018-08-06T16:32:52.401Z,32.00
2018-08-06T16:35:23.185Z,33.10
2018-08-06T16:37:53.796Z,33.10
2018-08-06T16:40:23.101Z,32.40
2018-08-06T16:42:52.576Z,32.40
2018-08-06T16:45:22.106Z,33.20
2018-08-06T16:47:51.431Z,33.30
2018-08-06T16:50:20.763Z,33.10
2018-08-06T16:52:50.257Z,32.30
2018-08-06T16:55:19.655Z,32.50
2018-08-06T16:57:49.498Z,31.90
2018-08-06T17:00:22.134Z,31.90
2018-08-06T17:02:52.619Z,32.50
2018-08-06T17:05:22.179Z,32.60
2018-08-06T17:07:51.617Z,33.10
2018-08-06T17:10:21.807Z,33.50
2018-08-06T17:12:53.243Z,33.70
2018-08-06T17:15:22.704Z,34.00
2018-08-06T17:17:54.548Z,33.40
2018-08-06T17:20:24.519Z,33.80
2018-08-06T17:22:55.799Z,34.20
2018-08-06T17:25:25.243Z,34.30
2018-08-06T17:27:54.587Z,34.00
2018-08-06T17:30:23.878Z,33.80
2018-08-06T17:32:53.936Z,34.00
2018-08-06T17:35:23.656Z,34.00
2018-08-06T17:37:53.039Z,33.90
2018-08-06T17:40:22.327Z,33.90
2018-08-06T17:42:51.632Z,34.30
2018-08-06T17:45:23.100Z,34.60
2018-08-06T17:47:53.111Z,34.60
2018-08-06T17:50:23.364Z,34.50
2018-08-06T17:52:53.482Z,34.90
2018-08-06T17:55:23.847Z,35.50
2018-08-06T17:57:54.553Z,35.00
2018-08-06T18:00:23.891Z,35.30
2018-08-06T18:02:53.548Z,36.10
2018-08-06T18:05:23.184Z,35.50
2018-08-06T18:07:52.507Z,35.90
2018-08-06T18:10:21.887Z,36.40
2018-08-06T18:12:51.179Z,37.00
2018-08-06T18:15:20.462Z,36.80
2018-08-06T18:17:50.448Z,36.70
2018-08-06T18:20:20.118Z,37.50
2018-08-06T18:22:49.582Z,37.30
2018-08-06T18:25:19.862Z,37.50
2018-08-06T18:27:49.993Z,37.90
2018-08-06T18:30:21.185Z,38.20
2018-08-06T18:32:50.604Z,38.50
2018-08-06T18:35:20.404Z,38.80
2018-08-06T18:37:49.810Z,39.20
2018-08-06T18:40:20.514Z,39.40
2018-08-06T18:42:49.963Z,39.60
2018-08-06T18:45:20.685Z,40.00
2018-08-06T18:47:50.936Z,40.40
2018-08-06T18:50:20.528Z,40.80
2018-08-06T18:52:50.226Z,41.20
2018-08-06T18:55:19.687Z,41.50
2018-08-06T18:57:49.153Z,41.90
2018-08-06T19:00:20.702Z,42.20
2018-08-06T19:02:50.210Z,42.30
2018-08-06T19:05:19.583Z,42.60
2018-08-06T19:07:48.890Z,42.80
2018-08-06T19:10:18.227Z,43.10
2018-08-06T19:12:53.647Z,43.50
2018-08-06T19:15:23.971Z,43.80
2018-08-06T19:17:58.419Z,44.30
2018-08-06T19:20:28.246Z,44.30
2018-08-06T19:22:57.677Z,44.60
2018-08-06T19:25:28.580Z,44.80
2018-08-06T19:27:58.742Z,45.40
2018-08-06T19:30:33.471Z,45.90
2018-08-06T19:33:03.565Z,46.10
2018-08-06T19:35:32.881Z,46.40
2018-08-06T19:38:02.316Z,46.70
2018-08-06T19:40:32.251Z,46.70
2018-08-06T19:43:07.042Z,47.10
2018-08-06T19:45:36.478Z,46.90
2018-08-06T19:48:06.209Z,47.00
2018-08-06T19:50:40.739Z,47.20
2018-08-06T19:53:10.045Z,47.70
2018-08-06T19:55:44.815Z,48.50
2018-08-06T19:58:14.119Z,48.10
2018-08-06T20:00:44.205Z,48.20
2018-08-06T20:03:13.559Z,48.40
2018-08-06T20:05:42.859Z,48.00
2018-08-06T20:08:12.198Z,48.30
2018-08-06T20:10:41.489Z,48.80
2018-08-06T20:13:10.771Z,50.70
2018-08-06T20:15:40.127Z,51.10
2018-08-06T20:18:09.399Z,51.10
2018-08-06T20:20:39.033Z,51.60
2018-08-06T20:23:09.252Z,51.50
2018-08-06T20:25:42.711Z,51.50
2018-08-06T20:28:12.638Z,52.10
2018-08-06T20:30:41.899Z,53.10
2018-08-06T20:33:11.238Z,53.90
2018-08-06T20:35:40.525Z,54.00
2018-08-06T20:38:10.247Z,53.70
2018-08-06T20:40:40.687Z,54.00
2018-08-06T20:43:10.082Z,54.10
2018-08-06T20:45:39.371Z,53.50
2018-08-06T20:48:09.471Z,53.40
2018-08-06T20:50:38.730Z,52.90
2018-08-06T20:53:08.085Z,53.00
2018-08-06T20:55:37.670Z,54.10
2018-08-06T20:58:07.352Z,56.10
2018-08-06T21:00:36.633Z,56.30
2018-08-06T21:03:06.623Z,55.60
2018-08-06T21:05:35.901Z,55.70
2018-08-06T21:08:05.286Z,56.40
2018-08-06T21:10:34.683Z,56.50
2018-08-06T21:13:04.039Z,57.40
2018-08-06T21:15:33.367Z,57.00
2018-08-06T21:18:02.670Z,56.30
2018-08-06T21:20:31.932Z,56.90
2018-08-06T21:23:01.296Z,58.90
2018-08-06T21:25:30.696Z,59.30
2018-08-06T21:28:00.052Z,58.70
2018-08-06T21:30:29.330Z,58.70
2018-08-06T21:32:59.262Z,59.30
2018-08-06T21:35:29.055Z,59.70
2018-08-06T21:37:58.375Z,59.80
2018-08-06T21:40:27.768Z,60.20
2018-08-06T21:42:56.991Z,60.50
2018-08-06T21:45:26.313Z,61.10
2018-08-06T21:47:55.647Z,61.20
2018-08-06T21:50:24.898Z,62.80
2018-08-06T21:52:54.236Z,62.50
2018-08-06T21:55:24.171Z,63.20
2018-08-06T21:57:53.492Z,62.10
2018-08-06T22:00:35.068Z,62.50
2018-08-06T22:03:06.004Z,63.00
2018-08-06T22:05:35.608Z,64.50
2018-08-06T22:08:04.852Z,64.60
2018-08-06T22:10:34.215Z,63.50
2018-08-06T22:13:03.577Z,64.20
2018-08-06T22:15:32.876Z,64.80
2018-08-06T22:18:02.130Z,64.80
2018-08-06T22:20:31.436Z,64.90
2018-08-06T22:23:01.086Z,64.40
2018-08-06T22:25:30.388Z,63.40
2018-08-06T22:27:59.888Z,63.10
2018-08-06T22:30:29.261Z,64.90
2018-08-06T22:32:59.293Z,65.50
2018-08-06T22:35:29.348Z,65.00
2018-08-06T22:37:58.663Z,63.90
2018-08-06T22:40:27.889Z,63.70
2018-08-06T22:42:57.146Z,63.00
2018-08-06T22:45:26.454Z,63.40
2018-08-06T22:47:55.707Z,63.90
2018-08-06T22:50:25.024Z,63.70
2018-08-06T22:52:54.265Z,64.00
2018-08-06T22:55:23.480Z,64.20
2018-08-06T22:57:53.487Z,62.90
2018-08-06T23:00:22.942Z,63.20
2018-08-06T23:02:52.176Z,62.70
2018-08-06T23:05:21.446Z,65.30
2018-08-06T23:07:50.683Z,66.40
2018-08-06T23:10:20.422Z,67.00
2018-08-06T23:12:50.299Z,66.40
2018-08-06T23:15:19.639Z,66.50
2018-08-06T23:17:48.912Z,65.70
2018-08-06T23:20:18.443Z,65.00
2018-08-06T23:22:47.715Z,65.70
2018-08-06T23:25:17.728Z,64.70
2018-08-06T23:27:46.991Z,65.00
2018-08-06T23:30:16.231Z,64.20
2018-08-06T23:32:45.486Z,64.40
2018-08-06T23:35:14.847Z,65.00
2018-08-06T23:37:44.978Z,65.50
2018-08-06T23:40:15.103Z,65.60
2018-08-06T23:42:44.582Z,66.10
2018-08-06T23:45:15.252Z,66.00
2018-08-06T23:47:44.805Z,67.40
2018-08-06T23:50:15.300Z,68.20
2018-08-06T23:52:45.575Z,68.60
2018-08-06T23:57:44.458Z,67.10
